createdAt,value
2018-12-05T00:01:08.599Z,4.30
2018-12-05T00:03:36.117Z,4.50
2018-12-05T00:06:03.673Z,4.70
2018-12-05T00:08:31.211Z,4.70
2018-12-05T00:10:58.749Z,4.70
2018-12-05T00:13:26.257Z,4.60
2018-12-05T00:15:53.788Z,4.40
2018-12-05T00:18:21.281Z,4.30
2018-12-05T00:20:48.859Z,4.20
2018-12-05T00:23:16.457Z,4.00
2018-12-05T00:25:43.951Z,3.90
2018-12-05T00:28:12.416Z,3.90
2018-12-05T00:30:39.945Z,3.80
2018-12-05T00:33:07.468Z,3.70
2018-12-05T00:35:35.009Z,3.60
2018-12-05T00:38:02.525Z,3.50
2018-12-05T00:40:30.160Z,3.40
2018-12-05T00:42:57.725Z,3.40
2018-12-05T00:45:25.295Z,3.30
2018-12-05T00:47:52.787Z,3.30
2018-12-05T00:50:20.351Z,3.20
2018-12-05T00:52:47.902Z,3.20
2018-12-05T00:55:15.573Z,3.10
2018-12-05T00:57:43.510Z,3.10
2018-12-05T01:00:11.108Z,3.00
2018-12-05T01:02:38.647Z,2.90
2018-12-05T01:05:07.864Z,2.90
2018-12-05T01:07:35.631Z,2.90
2018-12-05T01:10:04.637Z,2.80
2018-12-05T01:12:32.157Z,2.80
2018-12-05T01:14:59.679Z,2.80
2018-12-05T01:17:27.241Z,2.70
2018-12-05T01:19:54.792Z,2.70
2018-12-05T01:22:22.343Z,2.70
2018-12-05T01:24:49.851Z,2.60
2018-12-05T01:27:17.463Z,2.60
2018-12-05T01:29:45.007Z,2.60
2018-12-05T01:32:12.503Z,2.50
2018-12-05T01:34:40.065Z,2.50
2018-12-05T01:37:07.639Z,2.50
2018-12-05T01:39:35.155Z,2.50
2018-12-05T01:42:02.760Z,2.40
2018-12-05T01:44:30.273Z,2.40
2018-12-05T01:46:57.778Z,2.40
2018-12-05T01:49:25.273Z,2.40
2018-12-05T01:51:52.768Z,2.30
2018-12-05T01:54:20.393Z,2.30
2018-12-05T01:56:47.903Z,2.30
2018-12-05T01:59:16.390Z,2.30
2018-12-05T02:01:43.916Z,2.30
2018-12-05T02:04:11.518Z,2.30
2018-12-05T02:06:39.473Z,2.20
2018-12-05T02:09:07.330Z,2.20
2018-12-05T02:11:34.825Z,2.20
2018-12-05T02:14:02.528Z,2.20
2018-12-05T02:16:30.048Z,2.20
2018-12-05T02:18:57.622Z,2.10
2018-12-05T02:21:25.147Z,2.10
2018-12-05T02:23:52.700Z,2.10
2018-12-05T02:26:20.242Z,2.10
2018-12-05T02:28:47.784Z,2.10
2018-12-05T02:31:15.320Z,2.10
2018-12-05T02:33:42.867Z,2.10
2018-12-05T02:36:10.399Z,2.00
2018-12-05T02:38:37.921Z,2.00
2018-12-05T02:41:05.422Z,2.00
2018-12-05T02:43:32.905Z,2.00
2018-12-05T02:46:00.482Z,2.00
2018-12-05T02:48:28.032Z,2.00
2018-12-05T02:50:55.753Z,2.00
2018-12-05T02:53:23.263Z,1.90
2018-12-05T02:55:50.861Z,1.90
2018-12-05T02:58:18.377Z,1.90
2018-12-05T03:00:45.909Z,1.90
2018-12-05T03:03:13.443Z,1.80
2018-12-05T03:05:41.074Z,1.80
2018-12-05T03:08:08.825Z,1.80
2018-12-05T03:10:36.415Z,1.80
2018-12-05T03:13:04.051Z,1.80
2018-12-05T03:15:31.560Z,1.80
2018-12-05T03:17:59.048Z,1.80
2018-12-05T03:20:26.556Z,1.80
2018-12-05T03:22:54.083Z,1.70
2018-12-05T03:25:21.604Z,1.70
2018-12-05T03:27:49.586Z,1.80
2018-12-05T03:30:17.094Z,1.70
2018-12-05T03:32:44.617Z,1.70
2018-12-05T03:35:12.155Z,1.70
2018-12-05T03:37:39.652Z,1.70
2018-12-05T03:40:07.411Z,1.70
2018-12-05T03:42:35.009Z,1.70
2018-12-05T03:45:02.569Z,1.70
2018-12-05T03:47:30.123Z,1.70
2018-12-05T03:50:01.816Z,1.70
2018-12-05T03:52:29.815Z,1.60
2018-12-05T03:54:57.312Z,1.60
2018-12-05T03:57:24.838Z,1.60
2018-12-05T03:59:52.389Z,1.60
2018-12-05T04:02:21.173Z,1.50
2018-12-05T04:04:48.772Z,1.50
2018-12-05T04:07:16.319Z,1.50
2018-12-05T04:09:45.147Z,1.50
2018-12-05T04:12:12.909Z,1.40
2018-12-05T04:14:40.433Z,1.40
2018-12-05T04:17:07.982Z,1.40
2018-12-05T04:19:35.584Z,1.40
2018-12-05T04:22:03.158Z,1.30
2018-12-05T04:24:30.690Z,1.30
2018-12-05T04:26:58.206Z,1.30
2018-12-05T04:29:25.726Z,1.30
2018-12-05T04:31:53.255Z,1.30
2018-12-05T04:34:20.840Z,1.30
2018-12-05T04:36:48.462Z,1.30
2018-12-05T04:39:16.542Z,1.30
2018-12-05T04:41:44.126Z,1.30
2018-12-05T04:44:11.695Z,1.30
2018-12-05T04:46:39.214Z,1.30
2018-12-05T04:49:06.728Z,1.30
2018-12-05T04:51:34.223Z,1.30
2018-12-05T04:54:01.769Z,1.30
2018-12-05T04:56:29.294Z,1.30
2018-12-05T04:58:56.834Z,1.30
2018-12-05T05:01:24.382Z,1.30
2018-12-05T05:03:51.906Z,1.30
2018-12-05T05:06:19.420Z,1.30
2018-12-05T05:08:46.912Z,1.30
2018-12-05T05:11:14.450Z,1.30
2018-12-05T05:13:42.018Z,1.30
2018-12-05T05:16:09.525Z,1.30
2018-12-05T05:18:37.016Z,1.30
2018-12-05T05:21:04.548Z,1.30
2018-12-05T05:23:32.086Z,1.30
2018-12-05T05:25:59.606Z,1.30
2018-12-05T05:28:27.124Z,1.30
2018-12-05T05:30:55.355Z,1.30
2018-12-05T05:33:22.859Z,1.30
2018-12-05T05:35:50.384Z,1.30
2018-12-05T05:38:17.886Z,1.30
2018-12-05T05:40:46.418Z,1.20
2018-12-05T05:43:13.934Z,1.20
2018-12-05T05:45:41.446Z,1.30
2018-12-05T05:48:09.004Z,1.20
2018-12-05T05:50:36.530Z,1.30
2018-12-05T05:53:04.210Z,1.30
2018-12-05T05:55:31.721Z,1.30
2018-12-05T05:57:59.286Z,1.20
2018-12-05T06:00:27.760Z,1.20
2018-12-05T06:02:55.255Z,1.20
2018-12-05T06:05:22.763Z,1.30
2018-12-05T06:07:50.755Z,1.30
2018-12-05T06:10:18.281Z,1.30
2018-12-05T06:12:45.819Z,1.30
2018-12-05T06:15:13.364Z,1.20
2018-12-05T06:17:41.007Z,1.20
2018-12-05T06:20:08.554Z,1.40
2018-12-05T06:22:36.093Z,1.40
2018-12-05T06:25:05.154Z,1.40
2018-12-05T06:27:32.806Z,1.40
2018-12-05T06:30:00.491Z,1.40
2018-12-05T06:32:28.053Z,1.40
2018-12-05T06:34:55.566Z,1.50
2018-12-05T06:37:23.080Z,1.50
2018-12-05T06:39:50.581Z,1.50
2018-12-05T06:42:18.080Z,1.50
2018-12-05T06:44:45.637Z,1.50
2018-12-05T06:47:13.173Z,1.50
2018-12-05T06:49:40.780Z,1.50
2018-12-05T06:52:08.291Z,1.50
2018-12-05T06:54:35.789Z,1.50
2018-12-05T06:57:03.383Z,1.50
2018-12-05T06:59:30.873Z,1.40
2018-12-05T07:01:58.360Z,1.40
2018-12-05T07:04:25.879Z,1.40
2018-12-05T07:06:53.379Z,1.40
2018-12-05T07:09:20.907Z,1.40
2018-12-05T07:11:48.411Z,1.30
2018-12-05T07:14:15.959Z,1.30
2018-12-05T07:16:43.469Z,1.30
2018-12-05T07:19:10.957Z,1.30
2018-12-05T07:21:39.277Z,1.40
2018-12-05T07:24:09.002Z,1.40
2018-12-05T07:26:36.799Z,1.50
2018-12-05T07:29:04.653Z,1.50
2018-12-05T07:31:32.149Z,1.40
2018-12-05T07:33:59.679Z,1.40
2018-12-05T07:36:27.979Z,1.40
2018-12-05T07:38:56.489Z,1.30
2018-12-05T07:41:24.101Z,1.30
2018-12-05T07:43:51.640Z,1.30
2018-12-05T07:46:19.151Z,1.30
2018-12-05T07:48:46.711Z,1.40
2018-12-05T07:51:14.255Z,1.40
2018-12-05T07:53:41.756Z,1.50
2018-12-05T07:56:09.243Z,1.60
2018-12-05T07:58:36.794Z,1.70
2018-12-05T08:01:04.337Z,1.70
2018-12-05T08:03:31.875Z,1.80
2018-12-05T08:05:59.465Z,1.80
2018-12-05T08:08:26.963Z,1.80
2018-12-05T08:10:54.474Z,1.80
2018-12-05T08:13:22.094Z,1.90
2018-12-05T08:15:49.612Z,1.90
2018-12-05T08:18:17.131Z,2.00
2018-12-05T08:20:44.651Z,2.00
2018-12-05T08:23:12.262Z,2.00
2018-12-05T08:25:40.882Z,2.10
2018-12-05T08:28:08.686Z,2.10
2018-12-05T08:30:36.209Z,2.20
2018-12-05T08:33:04.355Z,2.20
2018-12-05T08:35:31.866Z,2.30
2018-12-05T08:38:00.481Z,2.40
2018-12-05T08:40:28.324Z,2.40
2018-12-05T08:42:55.858Z,2.40
2018-12-05T08:45:23.446Z,2.40
2018-12-05T08:47:50.938Z,2.40
2018-12-05T08:50:18.480Z,2.40
2018-12-05T08:52:46.043Z,2.40
2018-12-05T08:55:14.177Z,2.50
2018-12-05T08:57:41.680Z,2.50
2018-12-05T09:00:09.284Z,2.50
2018-12-05T09:02:36.792Z,2.70
2018-12-05T09:05:05.530Z,2.80
2018-12-05T09:07:33.042Z,2.80
2018-12-05T09:10:00.594Z,2.80
2018-12-05T09:12:28.265Z,2.90
2018-12-05T09:14:55.792Z,3.00
2018-12-05T09:17:23.395Z,3.00
2018-12-05T09:19:50.946Z,3.10
2018-12-05T09:22:18.620Z,3.10
2018-12-05T09:24:46.156Z,3.20
2018-12-05T09:27:13.670Z,3.20
2018-12-05T09:29:41.230Z,3.30
2018-12-05T09:32:08.823Z,3.30
2018-12-05T09:34:36.980Z,3.40
2018-12-05T09:37:04.508Z,3.40
2018-12-05T09:39:32.018Z,3.50
2018-12-05T09:41:59.684Z,3.50
2018-12-05T09:44:27.272Z,3.60
2018-12-05T09:46:54.789Z,3.70
2018-12-05T09:49:22.330Z,3.70
2018-12-05T09:51:49.874Z,3.80
2018-12-05T09:54:17.404Z,3.90
2018-12-05T09:56:44.946Z,3.90
2018-12-05T09:59:12.460Z,4.00
2018-12-05T10:01:40.007Z,4.10
2018-12-05T10:04:08.213Z,4.10
2018-12-05T10:06:35.714Z,4.20
2018-12-05T10:09:05.022Z,4.30
2018-12-05T10:11:32.575Z,4.30
2018-12-05T10:14:00.101Z,4.40
2018-12-05T10:16:27.646Z,4.50
2018-12-05T10:18:55.166Z,4.60
2018-12-05T10:21:22.734Z,4.70
2018-12-05T10:23:50.274Z,4.70
2018-12-05T10:26:17.854Z,4.70
2018-12-05T10:28:45.362Z,4.90
2018-12-05T10:31:12.891Z,4.90
2018-12-05T10:33:40.440Z,4.90
2018-12-05T10:36:07.961Z,5.00
2018-12-05T10:38:35.479Z,5.10
2018-12-05T10:41:03.008Z,5.10
2018-12-05T10:43:30.574Z,5.10
2018-12-05T10:45:58.251Z,5.20
2018-12-05T10:48:25.745Z,5.20
2018-12-05T10:50:53.289Z,5.30
2018-12-05T10:53:20.853Z,5.40
2018-12-05T10:55:48.424Z,5.40
2018-12-05T10:58:15.955Z,5.50
2018-12-05T11:00:49.253Z,5.60
2018-12-05T11:03:18.735Z,5.60
2018-12-05T11:05:51.943Z,5.70
2018-12-05T11:08:19.619Z,5.80
2018-12-05T11:10:52.824Z,5.90
2018-12-05T11:13:25.929Z,5.90
2018-12-05T11:15:59.150Z,6.00
2018-12-05T11:18:32.944Z,6.00
2018-12-05T11:24:11.055Z,6.00
2018-12-05T11:26:38.820Z,6.00
2018-12-05T11:29:06.497Z,6.00
2018-12-05T11:31:34.044Z,6.00
2018-12-05T11:34:01.620Z,6.00
2018-12-05T11:36:29.144Z,6.00
2018-12-05T11:38:56.713Z,6.00
2018-12-05T11:41:24.209Z,6.00
2018-12-05T11:43:51.701Z,6.00
2018-12-05T11:46:19.275Z,6.10
2018-12-05T11:48:46.863Z,6.10
2018-12-05T11:51:14.391Z,6.20
2018-12-05T11:53:42.794Z,6.20
2018-12-05T11:56:10.324Z,6.20
2018-12-05T11:58:37.865Z,6.30
2018-12-05T12:01:05.539Z,6.30
2018-12-05T12:03:33.120Z,6.30
2018-12-05T12:06:00.657Z,6.30
2018-12-05T12:08:28.142Z,6.40
2018-12-05T12:10:55.670Z,6.40
2018-12-05T12:13:23.244Z,6.40
2018-12-05T12:15:50.783Z,6.40
2018-12-05T12:18:18.454Z,6.50
2018-12-05T12:20:45.975Z,6.50
2018-12-05T12:23:13.966Z,6.50
2018-12-05T12:25:41.496Z,6.50
2018-12-05T12:28:09.097Z,6.50
2018-12-05T12:30:36.625Z,6.50
2018-12-05T12:33:04.279Z,6.50
2018-12-05T12:35:32.276Z,6.50
2018-12-05T12:37:59.791Z,6.60
2018-12-05T12:40:28.097Z,6.60
2018-12-05T12:42:55.680Z,6.70
2018-12-05T12:45:23.223Z,6.70
2018-12-05T12:47:50.772Z,6.80
2018-12-05T12:50:18.278Z,6.90
2018-12-05T12:52:46.693Z,7.00
2018-12-05T12:55:15.129Z,7.10
2018-12-05T12:57:42.649Z,7.30
2018-12-05T13:00:10.470Z,7.40
2018-12-05T13:02:38.001Z,7.40
2018-12-05T13:05:05.578Z,7.30
2018-12-05T13:07:33.101Z,7.30
2018-12-05T13:10:00.663Z,7.30
2018-12-05T13:12:30.179Z,7.30
2018-12-05T13:14:57.709Z,7.30
2018-12-05T13:17:25.224Z,7.30
2018-12-05T13:19:52.799Z,7.20
2018-12-05T13:22:20.620Z,7.20
2018-12-05T13:24:48.250Z,7.10
2018-12-05T13:27:16.540Z,7.10
2018-12-05T13:29:44.062Z,7.10
2018-12-05T13:32:11.632Z,7.00
2018-12-05T13:34:39.116Z,7.00
2018-12-05T13:37:06.716Z,7.00
2018-12-05T13:39:34.246Z,6.90
2018-12-05T13:42:01.851Z,6.90
2018-12-05T13:44:29.360Z,6.80
2018-12-05T13:46:56.966Z,6.70
2018-12-05T13:49:24.566Z,6.70
2018-12-05T13:51:52.156Z,6.60
2018-12-05T13:54:19.805Z,6.50
2018-12-05T13:56:47.898Z,6.50
2018-12-05T13:59:15.416Z,6.50
2018-12-05T14:01:42.959Z,6.50
2018-12-05T14:04:10.494Z,6.40
2018-12-05T14:06:38.086Z,6.40
2018-12-05T14:09:06.377Z,6.30
2018-12-05T14:11:33.866Z,6.30
2018-12-05T14:14:01.505Z,6.30
2018-12-05T14:16:29.409Z,6.20
2018-12-05T14:18:57.022Z,6.20
2018-12-05T14:21:25.031Z,6.20
2018-12-05T14:23:52.547Z,6.20
2018-12-05T14:26:20.039Z,6.20
2018-12-05T14:28:47.595Z,6.20
2018-12-05T14:31:15.157Z,6.20
2018-12-05T14:33:42.751Z,6.10
2018-12-05T14:36:10.295Z,6.00
2018-12-05T14:38:38.270Z,5.90
2018-12-05T14:41:05.819Z,5.80
2018-12-05T14:43:33.410Z,5.70
2018-12-05T14:46:00.947Z,5.60
2018-12-05T14:48:28.456Z,5.50
2018-12-05T14:50:56.008Z,5.40
2018-12-05T14:53:23.506Z,5.30
2018-12-05T14:55:51.016Z,5.30
2018-12-05T14:58:18.615Z,5.20
2018-12-05T15:00:46.262Z,5.10
2018-12-05T15:03:14.079Z,5.00
2018-12-05T15:05:41.599Z,4.90
2018-12-05T15:08:09.122Z,4.80
2018-12-05T15:10:36.673Z,4.80
2018-12-05T15:13:04.243Z,4.70
2018-12-05T15:15:31.912Z,4.70
2018-12-05T15:17:59.432Z,4.70
2018-12-05T15:20:26.967Z,4.60
2018-12-05T15:22:54.539Z,4.50
2018-12-05T15:25:22.119Z,4.50
2018-12-05T15:27:49.673Z,4.50
2018-12-05T15:30:17.190Z,4.40
2018-12-05T15:32:44.707Z,4.50
2018-12-05T15:35:12.275Z,4.40
2018-12-05T15:37:39.872Z,4.40
2018-12-05T15:40:07.551Z,4.40
2018-12-05T15:42:35.792Z,4.40
2018-12-05T15:45:04.588Z,4.30
2018-12-05T15:47:32.101Z,4.30
2018-12-05T15:49:59.632Z,4.30
2018-12-05T15:52:27.139Z,4.20
2018-12-05T15:54:54.677Z,4.20
2018-12-05T15:57:22.758Z,4.20
2018-12-05T15:59:50.299Z,4.20
2018-12-05T16:02:17.782Z,4.20
2018-12-05T16:04:45.311Z,4.10
2018-12-05T16:07:12.839Z,4.10
2018-12-05T16:09:40.415Z,4.10
2018-12-05T16:12:07.971Z,4.10
2018-12-05T16:14:35.467Z,4.10
2018-12-05T16:17:03.005Z,4.00
2018-12-05T16:19:30.570Z,4.00
2018-12-05T16:21:58.081Z,4.10
2018-12-05T16:24:25.645Z,4.10
2018-12-05T16:26:54.101Z,4.20
2018-12-05T16:29:21.641Z,4.20
2018-12-05T16:31:49.171Z,4.40
2018-12-05T16:34:16.727Z,4.40
2018-12-05T16:36:44.396Z,4.50
2018-12-05T16:39:12.085Z,4.50
2018-12-05T16:41:39.605Z,4.60
2018-12-05T16:44:12.889Z,4.70
2018-12-05T16:46:36.652Z,4.60
2018-12-05T16:49:04.230Z,4.70
2018-12-05T16:51:31.784Z,4.60
2018-12-05T16:53:59.303Z,4.60
2018-12-05T16:56:26.844Z,4.70
2018-12-05T16:58:54.366Z,4.70
2018-12-05T17:01:22.768Z,4.80
2018-12-05T17:03:50.341Z,4.80
2018-12-05T17:06:17.894Z,4.80
2018-12-05T17:08:45.427Z,4.80
2018-12-05T17:11:13.040Z,4.80
2018-12-05T17:13:41.409Z,4.90
2018-12-05T17:16:08.962Z,4.90
2018-12-05T17:18:36.644Z,4.90
2018-12-05T17:21:04.252Z,4.90
2018-12-05T17:23:31.773Z,4.90
2018-12-05T17:25:59.315Z,5.00
2018-12-05T17:28:28.193Z,5.00
2018-12-05T17:30:56.561Z,5.00
2018-12-05T17:33:24.348Z,4.90
2018-12-05T17:35:51.976Z,5.00
2018-12-05T17:38:19.578Z,5.10
2018-12-05T17:40:47.146Z,5.10
2018-12-05T17:43:14.670Z,5.20
2018-12-05T17:45:42.218Z,5.20
2018-12-05T17:48:09.762Z,5.30
2018-12-05T17:50:37.992Z,5.30
2018-12-05T17:53:06.026Z,5.30
2018-12-05T17:55:33.558Z,5.40
2018-12-05T17:58:01.082Z,5.40
2018-12-05T18:00:29.216Z,5.40
2018-12-05T18:02:56.750Z,5.40
2018-12-05T18:05:24.286Z,5.40
2018-12-05T18:07:51.826Z,5.30
2018-12-05T18:10:19.381Z,5.30
2018-12-05T18:12:46.902Z,5.20
2018-12-05T18:15:15.016Z,5.20
2018-12-05T18:17:43.388Z,5.20
2018-12-05T18:20:11.340Z,5.20
2018-12-05T18:22:38.910Z,5.10
2018-12-05T18:25:06.544Z,5.10
2018-12-05T18:27:34.180Z,5.20
2018-12-05T18:30:01.850Z,5.20
2018-12-05T18:32:30.305Z,5.10
2018-12-05T18:34:57.898Z,5.20
2018-12-05T18:37:25.418Z,5.30
2018-12-05T18:39:53.807Z,5.20
2018-12-05T18:42:22.956Z,5.20
2018-12-05T18:44:50.484Z,5.30
2018-12-05T18:47:19.586Z,5.30
2018-12-05T18:49:47.402Z,5.30
2018-12-05T18:52:15.058Z,5.30
2018-12-05T18:54:42.623Z,5.20
2018-12-05T18:57:11.313Z,5.20
2018-12-05T18:59:38.904Z,5.20
2018-12-05T19:02:08.239Z,5.20
2018-12-05T19:04:35.789Z,5.10
2018-12-05T19:07:03.727Z,5.20
2018-12-05T19:09:31.731Z,5.20
2018-12-05T19:11:59.686Z,5.30
2018-12-05T19:14:32.950Z,5.40
2018-12-05T19:17:01.839Z,5.50
2018-12-05T19:19:30.215Z,5.50
2018-12-05T19:21:57.738Z,5.40
2018-12-05T19:24:25.246Z,5.40
2018-12-05T19:26:52.825Z,5.50
2018-12-05T19:29:20.369Z,5.50
2018-12-05T19:31:49.749Z,5.50
2018-12-05T19:34:17.288Z,5.50
2018-12-05T19:36:45.787Z,5.50
2018-12-05T19:39:14.274Z,5.50
2018-12-05T19:41:41.804Z,5.60
2018-12-05T19:44:11.290Z,5.60
2018-12-05T19:46:38.854Z,5.60
2018-12-05T19:49:06.543Z,5.60
2018-12-05T19:51:34.101Z,5.70
2018-12-05T19:54:03.584Z,5.70
2018-12-05T19:56:31.859Z,5.80
2018-12-05T19:58:59.429Z,5.90
2018-12-05T20:01:26.978Z,5.90
2018-12-05T20:03:55.326Z,5.80
2018-12-05T20:06:23.017Z,5.80
2018-12-05T20:08:50.550Z,5.80
2018-12-05T20:11:19.351Z,5.80
2018-12-05T20:13:47.727Z,5.80
2018-12-05T20:16:15.262Z,5.80
2018-12-05T20:18:42.775Z,5.80
2018-12-05T20:21:12.039Z,5.90
2018-12-05T20:23:40.931Z,5.80
2018-12-05T20:26:08.529Z,5.80
2018-12-05T20:28:36.067Z,5.90
2018-12-05T20:31:04.191Z,5.90
2018-12-05T20:33:31.704Z,5.90
2018-12-05T20:35:59.310Z,6.00
2018-12-05T20:38:26.865Z,5.90
2018-12-05T20:40:54.510Z,5.90
2018-12-05T20:43:22.270Z,5.90
2018-12-05T20:45:49.850Z,5.90
2018-12-05T20:48:17.395Z,6.00
2018-12-05T20:50:45.020Z,5.90
2018-12-05T20:53:12.582Z,6.00
2018-12-05T20:55:40.088Z,5.90
2018-12-05T20:58:07.758Z,5.90
2018-12-05T21:00:36.206Z,5.90
2018-12-05T21:03:03.893Z,6.00
2018-12-05T21:05:31.448Z,6.00
2018-12-05T21:07:58.974Z,6.10
2018-12-05T21:10:26.502Z,6.10
2018-12-05T21:12:54.055Z,6.10
2018-12-05T21:15:21.634Z,6.10
2018-12-05T21:17:49.184Z,6.10
2018-12-05T21:20:16.848Z,6.10
2018-12-05T21:22:47.208Z,6.20
2018-12-05T21:25:14.073Z,6.20
2018-12-05T21:27:41.608Z,6.20
2018-12-05T21:30:09.211Z,6.20
2018-12-05T21:32:37.553Z,6.30
2018-12-05T21:35:05.136Z,6.20
2018-12-05T21:37:32.684Z,6.20
2018-12-05T21:40:00.247Z,6.20
2018-12-05T21:42:27.782Z,6.10
2018-12-05T21:44:55.289Z,6.20
2018-12-05T21:47:23.069Z,6.10
2018-12-05T21:49:50.681Z,6.20
2018-12-05T21:52:18.252Z,6.20
2018-12-05T21:54:45.812Z,6.10
2018-12-05T21:57:14.268Z,6.10
2018-12-05T21:59:41.784Z,6.10
2018-12-05T22:02:09.356Z,6.10
2018-12-05T22:04:36.888Z,6.10
2018-12-05T22:07:04.394Z,6.10
2018-12-05T22:09:31.938Z,6.10
2018-12-05T22:11:59.454Z,6.10
2018-12-05T22:14:27.085Z,6.00
2018-12-05T22:16:54.706Z,6.00
2018-12-05T22:19:22.303Z,6.00
2018-12-05T22:21:49.857Z,6.00
2018-12-05T22:24:17.374Z,5.90
2018-12-05T22:26:44.918Z,5.90
2018-12-05T22:29:12.432Z,5.80
2018-12-05T22:31:39.958Z,5.90
2018-12-05T22:34:07.562Z,6.00
2018-12-05T22:36:35.123Z,6.00
2018-12-05T22:39:02.755Z,6.10
2018-12-05T22:41:30.364Z,6.00
2018-12-05T22:43:57.878Z,5.80
2018-12-05T22:46:25.468Z,5.80
2018-12-05T22:48:52.986Z,5.70
2018-12-05T22:51:20.508Z,5.80
2018-12-05T22:53:48.038Z,5.80
2018-12-05T22:56:15.596Z,5.90
2018-12-05T22:58:43.122Z,5.90
2018-12-05T23:01:10.682Z,5.80
2018-12-05T23:03:38.582Z,5.80
2018-12-05T23:06:06.154Z,5.80
2018-12-05T23:08:33.650Z,5.90
2018-12-05T23:11:01.212Z,5.90
2018-12-05T23:13:29.441Z,6.00
2018-12-05T23:15:56.931Z,6.10
2018-12-05T23:18:24.476Z,6.10
2018-12-05T23:20:52.083Z,6.10
2018-12-05T23:23:19.609Z,6.00
2018-12-05T23:25:47.190Z,5.90
2018-12-05T23:28:14.793Z,5.90
2018-12-05T23:30:42.426Z,5.90
2018-12-05T23:33:09.973Z,5.90
2018-12-05T23:35:37.570Z,6.00
2018-12-05T23:38:05.106Z,6.00
2018-12-05T23:40:32.700Z,5.90
2018-12-05T23:43:00.262Z,6.00
2018-12-05T23:45:27.848Z,5.90
2018-12-05T23:47:55.390Z,6.00
2018-12-05T23:50:22.939Z,5.90
2018-12-05T23:52:50.480Z,5.90
2018-12-05T23:55:18.043Z,6.00
2018-12-05T23:57:45.534Z,5.90
